Time;durP1;ratioP1;P1;durP2;ratioP2;P2;SDS_P1;SDS_P2;PMS_P1;PMS_P2;Temp;Humidity;BMP_temperature;BMP_pressure;BME280_temperature;BME280_humidity;BME280_pressure;Samples;Min_cycle;Max_cycle;Signal;HPM_P1;HPM_P2
2021/06/06 00:02:05;;;;;;;27.48;15.63;;;;;;;23.56;47.73;102120.16;5116523;27;20039;-61
2021/06/06 00:04:30;;;;;;;26.98;16.00;;;;;;;23.59;48.03;102121.69;5135061;27;20329;-60
2021/06/06 00:06:56;;;;;;;30.20;16.63;;;;;;;23.58;47.27;102111.78;5134861;27;20129;-61
2021/06/06 00:09:21;;;;;;;33.25;16.85;;;;;;;23.52;47.81;102115.25;5135311;27;20035;-61
2021/06/06 00:11:50;;;;;;;31.33;16.75;;;;;;;23.46;47.79;102116.81;5135201;27;20023;-61
2021/06/06 00:14:24;;;;;;;32.83;16.17;;;;;;;23.51;47.45;102124.47;5134911;27;20020;-61
2021/06/06 00:16:52;;;;;;;28.30;15.85;;;;;;;23.48;47.31;102124.88;5134687;27;20030;-61
2021/06/06 00:19:19;;;;;;;34.70;16.75;;;;;;;23.44;48.28;102123.50;5134420;27;20138;-61
2021/06/06 00:21:44;;;;;;;32.30;15.27;;;;;;;23.41;47.59;102115.66;5135213;27;20035;-60
2021/06/06 00:24:12;;;;;;;32.15;16.85;;;;;;;23.41;47.91;102118.41;5134789;28;20544;-61
2021/06/06 00:26:37;;;;;;;35.15;17.23;;;;;;;23.43;48.23;102128.13;5134923;27;20058;-61
2021/06/06 00:29:03;;;;;;;32.25;17.02;;;;;;;23.43;47.53;102121.78;5134187;28;20059;-60
2021/06/06 00:31:29;;;;;;;35.40;17.40;;;;;;;23.47;48.29;102125.88;5135247;27;20023;-61
2021/06/06 00:33:55;;;;;;;28.45;15.40;;;;;;;23.46;48.07;102126.91;5134538;28;20529;-61
2021/06/06 00:36:21;;;;;;;32.10;16.42;;;;;;;23.47;47.61;102124.00;5135488;27;20035;-61
2021/06/06 00:38:47;;;;;;;30.70;16.52;;;;;;;23.48;47.52;102124.88;5133175;28;20019;-61
2021/06/06 00:41:14;;;;;;;29.85;16.23;;;;;;;23.46;47.11;102118.69;5133723;28;20532;-61
2021/06/06 00:43:39;;;;;;;33.92;15.45;;;;;;;23.44;47.19;102128.97;5133547;28;20054;-60
2021/06/06 00:46:06;;;;;;;29.83;16.13;;;;;;;23.37;47.43;102120.59;5134700;27;20376;-61
2021/06/06 00:48:31;;;;;;;32.28;14.85;;;;;;;23.41;48.08;102135.66;5116393;28;20027;-61
2021/06/06 00:50:59;;;;;;;28.25;15.20;;;;;;;23.39;47.29;102135.00;5134762;28;20027;-61
2021/06/06 00:53:32;;;;;;;27.50;15.32;;;;;;;23.37;47.56;102134.28;5134624;27;20413;-61
2021/06/06 00:55:59;;;;;;;25.38;13.88;;;;;;;23.36;47.95;102121.66;5116276;28;20483;-60
2021/06/06 00:58:24;;;;;;;32.15;15.55;;;;;;;23.37;47.32;102136.16;5133996;27;20038;-61
2021/06/06 01:00:52;;;;;;;29.70;15.65;;;;;;;23.33;47.62;102127.47;5136332;27;20383;-61
2021/06/06 01:03:28;;;;;;;27.38;13.40;;;;;;;23.37;48.29;102123.34;5137142;27;20023;-60
2021/06/06 01:05:55;;;;;;;25.70;14.00;;;;;;;23.37;47.98;102128.81;5138810;27;20371;-61
2021/06/06 01:08:21;;;;;;;27.90;14.32;;;;;;;23.36;47.95;102129.00;5138348;27;20026;-61
2021/06/06 01:10:55;;;;;;;27.38;14.55;;;;;;;23.26;47.66;102101.88;5137117;27;20496;-61
2021/06/06 01:13:44;;;;;;;28.05;14.32;;;;;;;23.32;47.52;102119.44;5137117;27;20023;-61
2021/06/06 01:16:51;;;;;;;24.65;12.93;;;;;;;23.28;47.67;102121.72;5138011;27;20105;-60
2021/06/06 01:19:32;;;;;;;21.42;12.32;;;;;;;23.26;48.06;102120.16;5099761;27;20054;-61
2021/06/06 01:22:15;;;;;;;19.42;11.00;;;;;;;23.24;48.32;102123.09;5138106;27;20023;-61
2021/06/06 01:24:44;;;;;;;22.30;11.45;;;;;;;23.21;47.25;102115.25;5137802;27;20439;-61
2021/06/06 01:27:16;;;;;;;23.98;11.90;;;;;;;23.17;47.38;102127.59;5138011;27;20470;-61
2021/06/06 01:29:58;;;;;;;20.73;11.77;;;;;;;23.12;47.64;102130.84;5138209;27;20019;-61
2021/06/06 01:32:52;;;;;;;25.73;12.73;;;;;;;23.10;47.67;102126.59;5138743;27;20031;-60
2021/06/06 01:35:24;;;;;;;20.65;11.68;;;;;;;23.04;47.53;102117.22;5136712;27;20015;-61
2021/06/06 01:38:02;;;;;;;23.27;12.30;;;;;;;23.06;47.59;102119.78;5137850;27;20379;-61
2021/06/06 01:40:29;;;;;;;22.30;11.35;;;;;;;23.05;48.70;102112.63;5136611;27;20468;-61
2021/06/06 01:43:12;;;;;;;20.50;11.65;;;;;;;23.07;48.03;102118.75;5136685;27;20023;-62
2021/06/06 01:45:43;;;;;;;24.20;12.32;;;;;;;23.07;48.04;102110.53;5136442;27;20026;-62
2021/06/06 01:48:11;;;;;;;25.15;12.80;;;;;;;23.04;47.54;102105.44;5136531;27;20377;-61
2021/06/06 01:50:43;;;;;;;25.42;12.20;;;;;;;23.04;47.57;102116.38;5137566;27;20023;-61
2021/06/06 01:53:09;;;;;;;19.83;11.57;;;;;;;23.00;48.17;102113.13;5136829;27;20027;-61
2021/06/06 01:55:40;;;;;;;20.15;11.75;;;;;;;22.96;48.04;102113.69;5136226;27;20045;-61
2021/06/06 01:58:07;;;;;;;17.95;10.50;;;;;;;22.99;47.41;102107.84;5136159;27;20031;-61
2021/06/06 02:00:41;;;;;;;21.35;11.10;;;;;;;22.98;48.41;102114.34;5136359;27;20061;-61
2021/06/06 02:03:07;;;;;;;19.20;9.68;;;;;;;23.00;48.21;102115.03;5138126;27;20034;-61
2021/06/06 02:05:33;;;;;;;23.70;11.95;;;;;;;23.00;47.64;102109.56;5119146;27;20027;-61
2021/06/06 02:07:59;;;;;;;23.60;12.20;;;;;;;22.97;47.41;102110.78;5119616;27;20080;-61
2021/06/06 02:10:27;;;;;;;23.27;13.30;;;;;;;23.01;48.37;102116.72;5135645;27;20023;-61
2021/06/06 02:12:57;;;;;;;29.77;14.50;;;;;;;22.99;47.58;102107.84;5136719;27;20027;-61
2021/06/06 02:15:29;;;;;;;32.13;14.85;;;;;;;23.02;48.34;102113.81;5136115;27;20106;-61
2021/06/06 02:17:57;;;;;;;28.60;13.77;;;;;;;23.00;48.25;102109.56;5135556;27;20049;-61
2021/06/06 02:20:26;;;;;;;28.58;14.02;;;;;;;23.01;47.69;102114.00;5118649;27;20479;-62
2021/06/06 02:22:53;;;;;;;24.75;13.98;;;;;;;23.02;48.44;102112.97;5137057;27;20015;-62
2021/06/06 02:25:19;;;;;;;29.88;14.45;;;;;;;23.02;47.60;102118.44;5137394;27;20023;-62
2021/06/06 02:27:50;;;;;;;26.98;15.82;;;;;;;23.01;48.48;102112.09;5136622;27;20046;-62
2021/06/06 02:30:20;;;;;;;29.40;16.23;;;;;;;22.96;48.39;102103.59;5119607;27;20069;-61
2021/06/06 02:32:57;;;;;;;30.35;15.60;;;;;;;23.01;48.82;102112.09;5118725;27;20072;-62
2021/06/06 02:35:31;;;;;;;31.33;15.63;;;;;;;23.01;47.91;102100.31;5137139;27;20035;-61
2021/06/06 02:38:09;;;;;;;31.13;15.90;;;;;;;23.03;48.12;102095.53;5102247;27;20026;-61
2021/06/06 02:40:52;;;;;;;29.98;15.45;;;;;;;23.03;48.49;102106.47;5119139;27;20031;-61
2021/06/06 02:43:24;;;;;;;29.40;14.75;;;;;;;23.03;47.55;102109.22;5136944;27;20019;-61
2021/06/06 02:45:51;;;;;;;30.50;15.20;;;;;;;23.04;48.61;102105.44;5118679;27;20124;-61
2021/06/06 02:48:47;;;;;;;29.15;15.45;;;;;;;23.04;48.61;102109.03;5118339;27;20023;-61
2021/06/06 02:51:17;;;;;;;33.55;16.17;;;;;;;23.04;47.50;102111.75;5101003;27;20035;-61
2021/06/06 02:53:57;;;;;;;28.60;16.33;;;;;;;23.05;47.84;102101.69;5118352;27;20050;-61
2021/06/06 02:56:23;;;;;;;28.17;15.10;;;;;;;23.06;47.71;102114.31;5118811;27;20096;-61
2021/06/06 02:58:54;;;;;;;31.75;16.42;;;;;;;23.05;48.29;102101.69;5117730;27;20025;-61
2021/06/06 03:01:30;;;;;;;32.45;14.88;;;;;;;23.06;48.53;102097.94;5117788;27;20114;-61
2021/06/06 03:03:56;;;;;;;29.88;16.50;;;;;;;23.01;48.43;102092.97;5118147;27;20027;-61
2021/06/06 03:06:27;;;;;;;27.35;14.60;;;;;;;23.02;48.10;102097.41;5136366;27;20463;-62
2021/06/06 03:08:53;;;;;;;27.63;15.20;;;;;;;23.02;48.11;102091.97;5117887;27;20023;-61
2021/06/06 03:11:19;;;;;;;29.30;15.25;;;;;;;23.04;48.53;102099.97;5118036;27;20086;-61
2021/06/06 03:13:48;;;;;;;31.20;14.40;;;;;;;23.03;47.83;102098.28;5136391;27;20031;-61
2021/06/06 03:16:16;;;;;;;27.58;15.00;;;;;;;23.03;47.73;102092.81;5118755;27;20018;-61
2021/06/06 03:18:43;;;;;;;28.90;13.48;;;;;;;23.03;47.73;102092.81;5100452;27;20091;-61
2021/06/06 03:21:30;;;;;;;31.08;14.32;;;;;;;23.03;48.57;102098.28;5135166;27;20019;-61
2021/06/06 03:24:02;;;;;;;27.48;13.82;;;;;;;23.02;47.98;102094.69;5134422;27;20019;-61
2021/06/06 03:26:27;;;;;;;26.90;13.70;;;;;;;23.02;47.82;102096.56;5135199;27;20029;-61
2021/06/06 03:28:54;;;;;;;27.52;14.55;;;;;;;23.00;48.08;102098.63;5136243;27;20468;-61
2021/06/06 03:31:28;;;;;;;27.92;13.27;;;;;;;23.00;47.77;102102.19;5134953;27;20016;-61
2021/06/06 03:33:56;;;;;;;27.15;13.43;;;;;;;23.00;48.63;102104.09;5134421;27;20026;-61
2021/06/06 03:36:44;;;;;;;26.05;12.95;;;;;;;23.00;48.74;102101.38;5134354;27;20494;-61
2021/06/06 03:39:16;;;;;;;26.33;13.60;;;;;;;23.00;48.62;102098.63;5134394;27;20023;-61
2021/06/06 03:41:43;;;;;;;24.73;12.68;;;;;;;23.00;48.58;102099.47;5134550;27;20019;-62
2021/06/06 03:44:09;;;;;;;25.92;13.05;;;;;;;22.97;48.12;102094.38;5134361;27;20026;-61
2021/06/06 03:46:37;;;;;;;28.83;13.55;;;;;;;22.99;48.11;102086.84;5133990;27;20019;-62
2021/06/06 03:49:02;;;;;;;29.95;13.90;;;;;;;22.97;48.71;102093.53;5135669;27;20023;-61
2021/06/06 03:51:28;;;;;;;28.13;14.55;;;;;;;22.94;48.08;102094.75;5135929;27;20064;-61
2021/06/06 03:53:54;;;;;;;28.88;13.55;;;;;;;22.92;48.23;102095.94;5135677;27;20460;-61
2021/06/06 03:56:20;;;;;;;29.48;14.70;;;;;;;22.93;48.63;102103.97;5117693;27;20043;-61
2021/06/06 03:58:46;;;;;;;29.20;15.15;;;;;;;22.92;47.91;102096.78;5135936;27;20023;-61
2021/06/06 04:01:11;;;;;;;36.17;15.65;;;;;;;22.93;47.99;102100.38;5134080;27;20027;-61
2021/06/06 04:03:37;;;;;;;25.75;14.95;;;;;;;22.93;48.79;102103.09;5135691;27;20031;-61
2021/06/06 04:06:03;;;;;;;31.60;14.38;;;;;;;22.94;48.76;102105.66;5133561;27;20127;-61
2021/06/06 04:08:29;;;;;;;35.13;15.73;;;;;;;22.93;47.91;102098.50;5134077;27;20019;-61
2021/06/06 04:10:55;;;;;;;33.08;16.00;;;;;;;22.91;47.93;102099.69;5134574;27;20180;-61
2021/06/06 04:13:20;;;;;;;30.92;14.23;;;;;;;22.89;47.93;102102.59;5134963;27;20084;-61
2021/06/06 04:15:46;;;;;;;34.88;15.73;;;;;;;22.87;48.96;102095.59;5133879;27;20031;-61
2021/06/06 04:18:28;;;;;;;35.20;16.02;;;;;;;22.89;48.13;102101.78;5134897;27;20066;-61
2021/06/06 04:20:56;;;;;;;29.60;15.82;;;;;;;22.87;48.10;102103.81;5135334;27;20019;-61
2021/06/06 04:23:21;;;;;;;32.38;15.98;;;;;;;22.88;47.92;102094.59;5134895;27;20031;-61
2021/06/06 04:25:48;;;;;;;30.17;16.15;;;;;;;22.88;48.50;102100.91;5134913;27;20034;-61
2021/06/06 04:28:14;;;;;;;35.25;17.02;;;;;;;22.89;48.96;102101.78;5116629;28;20075;-61
2021/06/06 04:30:39;;;;;;;31.77;16.60;;;;;;;22.88;49.19;102100.91;5135749;27;20424;-61
2021/06/06 04:33:09;;;;;;;37.83;16.50;;;;;;;22.88;48.89;102100.06;5135641;27;20076;-61
2021/06/06 04:35:36;;;;;;;33.78;16.55;;;;;;;22.87;48.96;102101.94;5137682;27;20023;-61
2021/06/06 04:38:02;;;;;;;34.05;17.38;;;;;;;22.87;48.21;102109.28;5138044;27;20041;-62
2021/06/06 04:40:27;;;;;;;34.42;17.15;;;;;;;22.85;48.55;102111.34;5139090;27;20064;-62
2021/06/06 04:42:53;;;;;;;36.58;16.65;;;;;;;22.86;48.20;102107.59;5139085;27;20498;-61
2021/06/06 04:45:18;;;;;;;34.47;17.77;;;;;;;22.84;48.77;102107.75;5120696;27;20055;-61
2021/06/06 04:47:44;;;;;;;40.35;17.98;;;;;;;22.74;49.20;102092.59;5139322;27;20023;-61
2021/06/06 04:50:12;;;;;;;39.20;17.30;;;;;;;22.84;48.51;102117.81;5139345;27;20565;-62
2021/06/06 04:52:37;;;;;;;36.00;17.52;;;;;;;22.84;49.08;102115.09;5139000;27;20023;-61
2021/06/06 04:55:19;;;;;;;36.13;18.67;;;;;;;22.85;49.42;102111.34;5138952;27;20035;-62
2021/06/06 04:57:44;;;;;;;39.00;18.05;;;;;;;22.82;49.13;102112.56;5139067;27;20019;-61
2021/06/06 05:00:14;;;;;;;38.15;18.77;;;;;;;22.81;49.51;102115.47;5139024;27;20134;-61
2021/06/06 05:02:39;;;;;;;34.72;17.63;;;;;;;22.75;48.49;102113.44;5137449;27;20371;-61
2021/06/06 05:05:07;;;;;;;37.10;18.35;;;;;;;22.72;49.43;102113.78;5138581;27;20019;-61
2021/06/06 05:07:33;;;;;;;35.63;17.45;;;;;;;22.71;48.92;102121.13;5138969;27;20047;-61
2021/06/06 05:09:58;;;;;;;42.70;20.65;;;;;;;22.72;49.52;102111.06;5120011;27;20099;-61
2021/06/06 05:12:24;;;;;;;46.75;17.98;;;;;;;22.71;49.08;102120.28;5138609;27;20034;-61
2021/06/06 05:14:49;;;;;;;41.67;19.10;;;;;;;22.70;49.11;102121.31;5138701;27;20031;-61
2021/06/06 05:17:14;;;;;;;41.88;19.42;;;;;;;22.65;49.35;102110.06;5138724;27;20031;-61
2021/06/06 05:19:40;;;;;;;44.50;20.42;;;;;;;22.70;50.07;102113.13;5136655;27;20108;-61
2021/06/06 05:22:05;;;;;;;38.88;18.95;;;;;;;22.70;49.64;102113.13;5138273;27;20522;-61
2021/06/06 05:24:31;;;;;;;40.85;19.85;;;;;;;22.70;49.61;102113.13;5138588;27;20027;-61
2021/06/06 05:26:57;;;;;;;43.08;19.85;;;;;;;22.69;50.15;102116.88;5136893;27;20035;-60
2021/06/06 05:29:23;;;;;;;41.55;19.73;;;;;;;22.66;50.17;102111.78;5138329;27;20031;-61
2021/06/06 05:31:49;;;;;;;36.20;18.58;;;;;;;22.69;49.73;102111.41;5137815;27;20054;-61
2021/06/06 05:34:15;;;;;;;38.85;18.90;;;;;;;22.68;50.67;102117.91;5136916;27;20027;-61
2021/06/06 05:36:41;;;;;;;40.95;19.38;;;;;;;22.67;50.50;102118.94;5137879;27;20034;-61
2021/06/06 05:39:06;;;;;;;38.08;18.45;;;;;;;22.67;49.60;102121.69;5137974;27;20028;-61
2021/06/06 05:41:32;;;;;;;38.58;18.95;;;;;;;22.66;50.57;102128.16;5137938;27;20110;-61
2021/06/06 05:43:58;;;;;;;36.83;19.52;;;;;;;22.68;50.58;102117.91;5138136;27;20073;-61
2021/06/06 05:46:24;;;;;;;34.50;18.85;;;;;;;22.66;51.06;102115.34;5136847;27;20034;-61
2021/06/06 05:48:50;;;;;;;40.80;19.60;;;;;;;22.69;50.58;102122.34;5136947;27;20023;-61
2021/06/06 05:51:15;;;;;;;41.50;20.60;;;;;;;22.69;49.93;102128.66;5136573;27;20031;-61
2021/06/06 05:53:41;;;;;;;39.55;19.45;;;;;;;22.70;50.10;102126.78;5119926;27;20031;-61
2021/06/06 05:56:07;;;;;;;46.25;21.52;;;;;;;22.67;50.40;102129.88;5136285;27;20030;-61
2021/06/06 05:58:33;;;;;;;45.72;21.90;;;;;;;22.69;50.33;102123.19;5136297;27;20087;-60
2021/06/06 06:01:00;;;;;;;38.53;18.98;;;;;;;22.74;50.58;102120.78;5136635;27;20464;-61
2021/06/06 06:03:25;;;;;;;37.55;19.63;;;;;;;22.75;50.62;102113.44;5137854;27;20023;-61
2021/06/06 06:05:53;;;;;;;41.92;20.58;;;;;;;22.79;49.67;102112.03;5137166;27;20375;-61
2021/06/06 06:08:25;;;;;;;37.72;18.60;;;;;;;22.77;49.74;102114.97;5135906;27;20027;-61
2021/06/06 06:10:52;;;;;;;35.97;18.57;;;;;;;22.80;50.45;102120.09;5136258;27;20391;-62
2021/06/06 06:13:19;;;;;;;34.88;18.10;;;;;;;22.80;50.40;102117.34;5135936;27;20259;-61
2021/06/06 06:15:45;;;;;;;36.22;18.77;;;;;;;22.79;50.55;102118.38;5136219;27;20031;-61
2021/06/06 06:18:12;;;;;;;31.85;18.95;;;;;;;22.78;50.43;102119.38;5135475;27;20035;-60
2021/06/06 06:20:38;;;;;;;38.03;17.48;;;;;;;22.79;50.15;102120.25;5137446;27;20051;-61
2021/06/06 06:23:04;;;;;;;35.28;17.48;;;;;;;22.82;49.49;102122.63;5136025;27;20114;-61
2021/06/06 06:25:29;;;;;;;36.97;18.05;;;;;;;22.83;49.32;102113.41;5136299;27;20494;-60
2021/06/06 06:27:55;;;;;;;34.05;17.77;;;;;;;22.85;49.36;102122.28;5135595;27;20478;-61
2021/06/06 06:30:25;;;;;;;30.10;16.48;;;;;;;22.87;49.27;102122.94;5136980;27;20033;-61
2021/06/06 06:32:50;;;;;;;36.47;16.70;;;;;;;22.87;49.68;102121.06;5137179;27;20032;-61
2021/06/06 06:35:16;;;;;;;34.35;16.58;;;;;;;22.90;49.88;102131.63;5136989;27;20031;-61
2021/06/06 06:37:41;;;;;;;30.15;15.93;;;;;;;22.91;49.10;102132.50;5135483;27;20027;-61
2021/06/06 06:40:08;;;;;;;31.42;16.20;;;;;;;22.89;49.10;102129.91;5137073;27;20468;-61
2021/06/06 06:42:34;;;;;;;31.63;15.20;;;;;;;22.89;48.90;102118.16;5136919;27;20027;-60
2021/06/06 06:44:59;;;;;;;28.55;16.05;;;;;;;22.91;49.20;102127.03;5118095;27;20034;-61
2021/06/06 06:47:25;;;;;;;25.60;14.95;;;;;;;22.90;49.51;102130.78;5136631;27;20455;-61
2021/06/06 06:49:51;;;;;;;26.15;13.50;;;;;;;22.90;48.93;102141.72;5136645;27;20031;-60
2021/06/06 06:52:17;;;;;;;24.50;13.52;;;;;;;22.86;48.64;102134.91;5136757;27;20033;-61
2021/06/06 06:54:42;;;;;;;29.35;13.40;;;;;;;22.87;49.17;102136.59;5134916;27;20019;-61
2021/06/06 06:57:08;;;;;;;25.00;13.55;;;;;;;22.87;49.10;102134.72;5135940;27;20027;-61
2021/06/06 06:59:33;;;;;;;24.98;13.35;;;;;;;22.84;48.89;102132.34;5138110;27;20448;-61
2021/06/06 07:02:01;;;;;;;25.50;14.57;;;;;;;22.86;48.38;102134.91;5135454;27;20027;-61
2021/06/06 07:04:26;;;;;;;26.02;12.77;;;;;;;22.88;48.88;102132.84;5136898;27;20364;-61
2021/06/06 07:06:54;;;;;;;23.67;12.77;;;;;;;22.91;48.16;102144.28;5136106;27;20027;-61
2021/06/06 07:09:20;;;;;;;22.35;13.05;;;;;;;22.92;48.32;102139.69;5136726;27;20023;-61
2021/06/06 07:11:45;;;;;;;21.67;12.73;;;;;;;22.94;48.37;102133.00;5136330;27;20030;-61
2021/06/06 07:14:10;;;;;;;27.58;13.52;;;;;;;22.99;47.96;102144.25;5137172;27;20099;-60
2021/06/06 07:16:37;;;;;;;25.60;13.70;;;;;;;23.01;48.69;102144.91;5137659;27;20031;-61
2021/06/06 07:19:03;;;;;;;24.90;14.15;;;;;;;22.99;48.10;102135.19;5134917;27;20517;-61
2021/06/06 07:21:30;;;;;;;23.80;13.35;;;;;;;23.04;48.81;102149.16;5119214;27;20019;-61
2021/06/06 07:23:55;;;;;;;25.65;13.82;;;;;;;23.04;47.87;102146.44;5135041;27;20042;-62
2021/06/06 07:26:29;;;;;;;27.88;14.07;;;;;;;23.06;48.01;102147.97;5117504;27;20023;-61
2021/06/06 07:28:59;;;;;;;28.02;13.88;;;;;;;23.11;48.36;102148.31;5135865;27;20019;-60
2021/06/06 07:31:24;;;;;;;23.27;13.82;;;;;;;23.14;48.44;102145.19;5134359;27;20536;-61
2021/06/06 07:33:50;;;;;;;24.35;14.55;;;;;;;23.15;48.54;102151.50;5135514;27;20030;-60
2021/06/06 07:36:19;;;;;;;25.10;13.27;;;;;;;23.18;48.72;102152.00;5135875;27;20457;-61
2021/06/06 07:38:47;;;;;;;22.20;13.10;;;;;;;23.24;47.62;102155.91;5134422;27;20030;-61
2021/06/06 07:41:13;;;;;;;27.45;14.13;;;;;;;23.27;47.56;102150.06;5135761;27;20025;-61
2021/06/06 07:43:38;;;;;;;20.67;12.52;;;;;;;23.29;48.00;102156.22;5135545;27;20455;-60
2021/06/06 07:46:04;;;;;;;25.58;13.48;;;;;;;23.33;48.09;102149.38;5135672;27;20379;-59
2021/06/06 07:48:29;;;;;;;20.02;12.57;;;;;;;23.35;48.44;102151.91;5134574;27;20026;-62
2021/06/06 07:50:55;;;;;;;31.58;15.25;;;;;;;23.39;48.31;102159.63;5127472;27;20365;-61
2021/06/06 07:53:22;;;;;;;23.23;13.68;;;;;;;23.42;47.41;102158.41;5114194;28;20114;-61
2021/06/06 07:55:49;;;;;;;25.25;13.50;;;;;;;23.46;48.15;102152.38;5114328;28;20023;-61
2021/06/06 07:58:19;;;;;;;20.50;13.00;;;;;;;23.51;47.37;102149.09;5078046;28;20391;-61
2021/06/06 08:00:44;;;;;;;25.13;13.93;;;;;;;23.56;47.88;102154.91;5096120;28;20022;-61
2021/06/06 08:03:10;;;;;;;30.63;14.60;;;;;;;23.60;47.02;102161.69;5114083;28;20035;-61
2021/06/06 08:05:37;;;;;;;26.85;14.55;;;;;;;23.61;47.94;102156.06;5114176;28;20024;-60
2021/06/06 08:08:03;;;;;;;26.35;13.65;;;;;;;23.66;47.95;102163.69;5114386;28;20019;-61
2021/06/06 08:10:30;;;;;;;25.27;13.73;;;;;;;23.67;48.06;102163.50;5096649;28;20096;-61
2021/06/06 08:12:55;;;;;;;23.63;12.93;;;;;;;23.66;47.74;102150.88;5114341;28;20030;-61
2021/06/06 08:15:23;;;;;;;24.30;13.13;;;;;;;23.70;47.50;102154.09;5114613;28;20462;-61
2021/06/06 08:17:49;;;;;;;23.85;13.30;;;;;;;23.71;47.81;102159.38;5114294;28;20115;-61
2021/06/06 08:20:22;;;;;;;24.50;13.07;;;;;;;23.75;47.02;102160.72;5062724;28;20043;-61
2021/06/06 08:22:48;;;;;;;22.45;12.60;;;;;;;23.78;48.03;102157.59;5114092;28;20040;-61
2021/06/06 08:25:14;;;;;;;23.05;13.45;;;;;;;23.81;47.82;102161.03;5114678;28;20023;-61
2021/06/06 08:27:42;;;;;;;30.92;14.13;;;;;;;23.82;47.57;102165.44;5114367;28;20030;-61
2021/06/06 08:30:18;;;;;;;24.42;13.45;;;;;;;23.84;47.83;102157.94;5099670;28;20026;-61
2021/06/06 08:32:43;;;;;;;24.30;13.98;;;;;;;23.84;46.84;102168.88;5116153;28;20344;-61
2021/06/06 08:35:09;;;;;;;22.88;13.27;;;;;;;23.89;47.70;102155.50;5134899;28;20030;-61
2021/06/06 08:37:35;;;;;;;28.88;14.10;;;;;;;23.93;47.76;102157.66;5099140;28;20015;-61
2021/06/06 08:40:01;;;;;;;23.15;13.25;;;;;;;23.99;46.89;102161.56;5116160;28;20120;-61
2021/06/06 08:42:30;;;;;;;23.88;12.93;;;;;;;24.04;46.60;102159.09;5134918;28;20379;-61
2021/06/06 08:45:14;;;;;;;23.83;13.18;;;;;;;24.11;46.63;102173.81;5134797;28;20088;-61
2021/06/06 08:47:39;;;;;;;24.08;13.60;;;;;;;24.14;47.13;102165.22;5134455;28;20022;-61
2021/06/06 08:50:11;;;;;;;24.52;12.50;;;;;;;24.15;47.02;102164.16;5116141;28;20027;-60
2021/06/06 08:53:07;;;;;;;23.55;13.98;;;;;;;24.17;46.79;102164.84;5134385;28;20031;-60
2021/06/06 08:55:47;;;;;;;25.15;13.55;;;;;;;24.20;47.28;102165.31;5116319;28;20471;-60
2021/06/06 08:58:22;;;;;;;24.33;13.60;;;;;;;24.26;46.67;102166.50;5134590;28;20479;-60
2021/06/06 09:00:55;;;;;;;24.15;13.48;;;;;;;24.28;46.98;102168.00;5115993;28;20026;-61
2021/06/06 09:03:24;;;;;;;22.20;12.27;;;;;;;24.29;46.47;102171.56;5134084;28;20027;-60
2021/06/06 09:05:59;;;;;;;21.90;12.43;;;;;;;24.32;46.42;102168.47;5098948;28;20019;-60
2021/06/06 09:08:25;;;;;;;22.98;12.57;;;;;;;24.41;46.76;102167.34;5116476;28;20022;-60
2021/06/06 09:10:54;;;;;;;21.25;12.80;;;;;;;24.50;46.59;102171.72;5116562;28;20046;-59
2021/06/06 09:13:22;;;;;;;48.65;14.90;;;;;;;24.54;46.48;102161.22;5134157;28;20030;-60
2021/06/06 09:15:47;;;;;;;29.40;12.85;;;;;;;24.63;46.47;102169.16;5116354;28;20022;-60
2021/06/06 09:18:16;;;;;;;25.77;12.70;;;;;;;24.70;46.31;102172.88;5134212;28;20047;-61
2021/06/06 09:20:43;;;;;;;19.27;11.82;;;;;;;24.76;46.05;102174.00;5135025;27;20072;-60
2021/06/06 09:23:16;;;;;;;24.15;12.50;;;;;;;24.82;46.30;102176.84;5138241;27;20102;-60
2021/06/06 09:25:44;;;;;;;22.00;12.07;;;;;;;24.90;46.45;102174.00;5139073;27;20088;-60
2021/06/06 09:28:15;;;;;;;19.85;11.98;;;;;;;24.95;45.81;102178.06;5138008;27;20023;-60
2021/06/06 09:30:42;;;;;;;25.83;12.45;;;;;;;24.97;46.45;102181.47;5137679;27;20038;-60
2021/06/06 09:33:21;;;;;;;22.60;12.13;;;;;;;25.00;46.29;102179.22;5138486;27;20027;-59
2021/06/06 09:35:53;;;;;;;20.17;11.30;;;;;;;25.03;46.53;102177.97;5121011;27;20023;-60
2021/06/06 09:38:30;;;;;;;22.07;11.70;;;;;;;25.05;46.43;102182.22;5138760;27;20106;-59
2021/06/06 09:41:07;;;;;;;18.52;10.98;;;;;;;25.06;46.31;102177.59;5137804;27;20099;-59
2021/06/06 09:43:33;;;;;;;20.98;11.10;;;;;;;25.11;46.24;102175.13;5137858;27;20384;-60
2021/06/06 09:46:17;;;;;;;17.85;10.82;;;;;;;25.16;45.75;102178.13;5137603;27;20031;-59
2021/06/06 09:48:44;;;;;;;21.27;10.75;;;;;;;25.20;45.85;102180.31;5118966;27;20050;-59
2021/06/06 09:51:30;;;;;;;17.23;10.40;;;;;;;25.25;46.52;102177.84;5137666;27;20098;-59
2021/06/06 09:54:07;;;;;;;24.58;12.15;;;;;;;25.31;45.76;102173.47;5119465;27;20027;-60
2021/06/06 09:56:33;;;;;;;18.98;11.38;;;;;;;25.36;45.49;102173.75;5119492;27;20019;-59
2021/06/06 09:59:07;;;;;;;17.85;10.48;;;;;;;25.39;46.11;102173.38;5118856;27;20039;-60
2021/06/06 10:01:35;;;;;;;19.52;11.30;;;;;;;25.42;45.88;102173.84;5137502;27;20042;-60
2021/06/06 10:04:07;;;;;;;17.80;10.88;;;;;;;25.47;45.79;102170.53;5119188;27;20080;-60
2021/06/06 10:06:34;;;;;;;16.55;9.95;;;;;;;25.53;45.38;102166.16;5119293;27;20464;-60
2021/06/06 10:09:18;;;;;;;20.83;11.57;;;;;;;25.62;45.77;102167.75;5137392;27;20030;-60
2021/06/06 10:11:51;;;;;;;20.25;10.63;;;;;;;25.72;45.81;102169.13;5137324;27;20068;-60
2021/06/06 10:14:19;;;;;;;15.43;10.10;;;;;;;25.81;45.59;102170.69;5119032;27;20023;-60
2021/06/06 10:16:45;;;;;;;17.88;9.40;;;;;;;25.88;45.02;102177.06;5118589;27;20491;-60
2021/06/06 10:19:26;;;;;;;16.70;10.63;;;;;;;25.94;45.09;102179.03;5136660;27;20408;-60
2021/06/06 10:21:53;;;;;;;15.18;9.52;;;;;;;26.01;44.99;102184.59;5118702;27;20030;-60
2021/06/06 10:24:57;;;;;;;17.90;10.55;;;;;;;26.10;45.08;102188.06;5137100;27;20020;-60
2021/06/06 10:27:47;;;;;;;17.40;9.05;;;;;;;26.20;44.53;102181.22;5116375;27;20031;-60
2021/06/06 10:30:22;;;;;;;13.60;8.95;;;;;;;26.28;44.50;102185.72;5103118;27;20114;-59
2021/06/06 10:32:49;;;;;;;20.23;9.52;;;;;;;26.34;44.79;102184.91;5101314;27;20019;-59
2021/06/06 10:35:22;;;;;;;15.98;9.18;;;;;;;26.39;44.31;102190.66;5118614;27;20027;-60
2021/06/06 10:37:52;;;;;;;16.55;9.95;;;;;;;26.43;44.77;102186.47;5136864;27;20058;-60
2021/06/06 10:40:20;;;;;;;16.38;9.13;;;;;;;26.47;43.93;102191.34;5137050;27;20027;-60
2021/06/06 10:43:12;;;;;;;15.20;8.85;;;;;;;26.51;44.37;102189.91;5136589;27;20068;-60
2021/06/06 10:46:14;;;;;;;18.40;9.40;;;;;;;26.54;44.19;102196.91;5107068;27;20107;-59
2021/06/06 10:48:55;;;;;;;14.50;8.75;;;;;;;26.55;44.15;102193.94;5118431;27;20019;-60
2021/06/06 10:51:40;;;;;;;13.68;8.07;;;;;;;26.57;44.32;102191.03;5117984;27;20023;-60
2021/06/06 10:54:36;;;;;;;12.90;8.10;;;;;;;26.61;43.91;102181.31;5117983;27;20070;-60
2021/06/06 10:57:24;;;;;;;15.43;8.80;;;;;;;26.65;44.59;102182.59;5136836;27;20019;-60
2021/06/06 10:59:54;;;;;;;12.57;8.23;;;;;;;26.70;43.86;102177.34;5121861;27;20090;-60
2021/06/06 11:02:39;;;;;;;12.50;8.40;;;;;;;26.77;43.77;102175.50;5119914;27;20023;-60
2021/06/06 11:05:23;;;;;;;16.75;9.13;;;;;;;26.76;43.58;102173.78;5136357;27;20019;-60
2021/06/06 11:07:49;;;;;;;13.82;8.40;;;;;;;26.75;43.70;102172.09;5135936;27;20064;-60
2021/06/06 11:10:20;;;;;;;11.00;7.82;;;;;;;26.81;43.58;102176.81;5136340;27;20106;-60
2021/06/06 11:12:49;;;;;;;16.27;7.60;;;;;;;26.92;43.89;102173.50;5135988;27;20030;-60
2021/06/06 11:15:29;;;;;;;11.60;7.82;;;;;;;27.04;43.11;102171.88;5117602;27;20480;-60
2021/06/06 11:18:13;;;;;;;15.55;9.07;;;;;;;27.16;43.79;102159.19;5135732;27;20525;-60
2021/06/06 11:21:01;;;;;;;17.00;7.95;;;;;;;27.29;43.39;102157.56;5135979;27;20031;-60
2021/06/06 11:23:39;;;;;;;11.70;7.10;;;;;;;27.43;43.72;102153.81;5118270;27;20092;-60